sensor_id;sensor_type;location;lat;lon;timestamp;P1;durP1;ratioP1;P2;durP2;ratioP2
25437;SDS011;13364;49.084;9.978;2022-07-11T00:02:13;4.00;;;1.23;;
25437;SDS011;13364;49.084;9.978;2022-07-11T00:04:41;3.90;;;1.17;;
25437;SDS011;13364;49.084;9.978;2022-07-11T00:07:14;5.05;;;1.40;;
25437;SDS011;13364;49.084;9.978;2022-07-11T00:09:42;2.78;;;1.35;;
25437;SDS011;13364;49.084;9.978;2022-07-11T00:12:09;2.38;;;1.30;;
25437;SDS011;13364;49.084;9.978;2022-07-11T00:14:37;2.45;;;1.35;;
25437;SDS011;13364;49.084;9.978;2022-07-11T00:17:06;3.67;;;1.40;;
25437;SDS011;13364;49.084;9.978;2022-07-11T00:19:37;2.20;;;1.33;;
25437;SDS011;13364;49.084;9.978;2022-07-11T00:22:05;3.22;;;1.50;;
25437;SDS011;13364;49.084;9.978;2022-07-11T00:24:33;2.78;;;1.40;;
25437;SDS011;13364;49.084;9.978;2022-07-11T00:27:00;1.10;;;1.00;;
25437;SDS011;13364;49.084;9.978;2022-07-11T00:29:27;1.65;;;1.17;;
25437;SDS011;13364;49.084;9.978;2022-07-11T00:31:56;1.15;;;0.77;;
25437;SDS011;13364;49.084;9.978;2022-07-11T00:34:23;1.85;;;0.80;;
25437;SDS011;13364;49.084;9.978;2022-07-11T00:36:51;2.78;;;1.08;;
25437;SDS011;13364;49.084;9.978;2022-07-11T00:39:18;1.10;;;0.90;;
25437;SDS011;13364;49.084;9.978;2022-07-11T00:41:45;1.15;;;0.77;;
25437;SDS011;13364;49.084;9.978;2022-07-11T00:44:12;3.30;;;1.42;;
25437;SDS011;13364;49.084;9.978;2022-07-11T00:46:40;2.58;;;1.75;;
25437;SDS011;13364;49.084;9.978;2022-07-11T00:49:08;1999.90;;;999.90;;
25437;SDS011;13364;49.084;9.978;2022-07-11T00:51:35;1.50;;;1.38;;
25437;SDS011;13364;49.084;9.978;2022-07-11T00:54:03;3.50;;;1.45;;
25437;SDS011;13364;49.084;9.978;2022-07-11T00:56:33;2.88;;;1.38;;
25437;SDS011;13364;49.084;9.978;2022-07-11T00:59:01;1.20;;;0.85;;
25437;SDS011;13364;49.084;9.978;2022-07-11T01:01:28;2.88;;;1.40;;
25437;SDS011;13364;49.084;9.978;2022-07-11T01:03:55;2.15;;;1.33;;
25437;SDS011;13364;49.084;9.978;2022-07-11T01:06:22;1999.90;;;999.90;;
25437;SDS011;13364;49.084;9.978;2022-07-11T01:08:50;106.32;;;33.30;;
25437;SDS011;13364;49.084;9.978;2022-07-11T01:11:17;1999.90;;;999.90;;
25437;SDS011;13364;49.084;9.978;2022-07-11T01:13:45;1999.90;;;999.90;;
25437;SDS011;13364;49.084;9.978;2022-07-11T01:16:14;2.63;;;2.00;;
25437;SDS011;13364;49.084;9.978;2022-07-11T01:18:43;4.63;;;2.30;;
25437;SDS011;13364;49.084;9.978;2022-07-11T01:21:22;1.80;;;1.70;;
25437;SDS011;13364;49.084;9.978;2022-07-11T01:23:52;4.60;;;1.70;;
25437;SDS011;13364;49.084;9.978;2022-07-11T01:26:21;4.03;;;2.03;;
25437;SDS011;13364;49.084;9.978;2022-07-11T01:28:49;2.28;;;2.00;;
25437;SDS011;13364;49.084;9.978;2022-07-11T01:31:17;4.38;;;2.28;;
25437;SDS011;13364;49.084;9.978;2022-07-11T01:33:45;3.75;;;2.17;;
25437;SDS011;13364;49.084;9.978;2022-07-11T01:36:12;2.78;;;2.10;;
25437;SDS011;13364;49.084;9.978;2022-07-11T01:38:39;2.97;;;2.33;;
25437;SDS011;13364;49.084;9.978;2022-07-11T01:41:06;2.65;;;2.28;;
25437;SDS011;13364;49.084;9.978;2022-07-11T01:43:33;3.03;;;2.45;;
25437;SDS011;13364;49.084;9.978;2022-07-11T01:46:00;2.75;;;2.15;;
25437;SDS011;13364;49.084;9.978;2022-07-11T01:48:28;2.58;;;2.17;;
25437;SDS011;13364;49.084;9.978;2022-07-11T01:50:55;2.42;;;2.20;;
25437;SDS011;13364;49.084;9.978;2022-07-11T01:53:22;2.10;;;1.90;;
25437;SDS011;13364;49.084;9.978;2022-07-11T01:55:50;2.33;;;2.13;;
25437;SDS011;13364;49.084;9.978;2022-07-11T01:58:37;3.70;;;1.70;;
25437;SDS011;13364;49.084;9.978;2022-07-11T02:01:04;101.45;;;11.60;;
25437;SDS011;13364;49.084;9.978;2022-07-11T02:03:31;0.70;;;0.68;;
25437;SDS011;13364;49.084;9.978;2022-07-11T02:05:59;1.05;;;0.45;;
25437;SDS011;13364;49.084;9.978;2022-07-11T02:08:26;1.65;;;1.05;;
25437;SDS011;13364;49.084;9.978;2022-07-11T02:10:53;0.73;;;0.40;;
25437;SDS011;13364;49.084;9.978;2022-07-11T02:13:21;1999.90;;;999.90;;
25437;SDS011;13364;49.084;9.978;2022-07-11T02:15:49;1999.90;;;999.90;;
25437;SDS011;13364;49.084;9.978;2022-07-11T02:18:17;1999.90;;;999.90;;
25437;SDS011;13364;49.084;9.978;2022-07-11T02:20:45;1999.90;;;999.90;;
25437;SDS011;13364;49.084;9.978;2022-07-11T02:23:13;124.78;;;119.97;;
25437;SDS011;13364;49.084;9.978;2022-07-11T02:25:40;1999.90;;;999.90;;
25437;SDS011;13364;49.084;9.978;2022-07-11T02:28:15;1999.90;;;999.90;;
25437;SDS011;13364;49.084;9.978;2022-07-11T02:30:43;1999.90;;;999.90;;
25437;SDS011;13364;49.084;9.978;2022-07-11T02:33:12;1999.90;;;999.90;;
25437;SDS011;13364;49.084;9.978;2022-07-11T02:35:46;1999.90;;;999.90;;
25437;SDS011;13364;49.084;9.978;2022-07-11T02:38:13;1999.90;;;999.90;;
25437;SDS011;13364;49.084;9.978;2022-07-11T02:40:42;1999.90;;;999.90;;
25437;SDS011;13364;49.084;9.978;2022-07-11T02:43:11;1999.90;;;999.90;;
25437;SDS011;13364;49.084;9.978;2022-07-11T02:45:38;1999.90;;;999.90;;
25437;SDS011;13364;49.084;9.978;2022-07-11T02:48:06;1999.90;;;999.90;;
25437;SDS011;13364;49.084;9.978;2022-07-11T02:50:33;1999.90;;;999.90;;
25437;SDS011;13364;49.084;9.978;2022-07-11T02:53:00;1999.90;;;999.90;;
25437;SDS011;13364;49.084;9.978;2022-07-11T02:55:27;1999.90;;;999.90;;
25437;SDS011;13364;49.084;9.978;2022-07-11T02:57:54;1999.90;;;999.90;;
25437;SDS011;13364;49.084;9.978;2022-07-11T03:00:21;1999.90;;;999.90;;
25437;SDS011;13364;49.084;9.978;2022-07-11T03:02:48;5.50;;;5.00;;
25437;SDS011;13364;49.084;9.978;2022-07-11T03:05:15;3.47;;;2.75;;
25437;SDS011;13364;49.084;9.978;2022-07-11T03:07:43;3.63;;;3.25;;
25437;SDS011;13364;49.084;9.978;2022-07-11T03:10:10;1999.90;;;999.90;;
25437;SDS011;13364;49.084;9.978;2022-07-11T03:12:38;1999.90;;;999.90;;
25437;SDS011;13364;49.084;9.978;2022-07-11T03:15:05;1999.90;;;999.90;;
25437;SDS011;13364;49.084;9.978;2022-07-11T03:17:33;1999.90;;;999.90;;
25437;SDS011;13364;49.084;9.978;2022-07-11T03:20:03;1999.90;;;999.90;;
25437;SDS011;13364;49.084;9.978;2022-07-11T03:22:30;1999.90;;;999.90;;
25437;SDS011;13364;49.084;9.978;2022-07-11T03:24:58;1999.90;;;999.90;;
25437;SDS011;13364;49.084;9.978;2022-07-11T03:27:26;1999.90;;;999.90;;
25437;SDS011;13364;49.084;9.978;2022-07-11T03:29:53;1999.90;;;999.90;;
25437;SDS011;13364;49.084;9.978;2022-07-11T03:32:20;1999.90;;;999.90;;
25437;SDS011;13364;49.084;9.978;2022-07-11T03:34:54;1999.90;;;999.90;;
25437;SDS011;13364;49.084;9.978;2022-07-11T03:37:39;1999.90;;;999.90;;
25437;SDS011;13364;49.084;9.978;2022-07-11T03:40:07;1999.90;;;999.90;;
25437;SDS011;13364;49.084;9.978;2022-07-11T03:42:35;1999.90;;;999.90;;
25437;SDS011;13364;49.084;9.978;2022-07-11T03:45:02;1999.90;;;999.90;;
25437;SDS011;13364;49.084;9.978;2022-07-11T03:47:29;1999.90;;;999.90;;
25437;SDS011;13364;49.084;9.978;2022-07-11T03:49:56;1999.90;;;999.90;;
25437;SDS011;13364;49.084;9.978;2022-07-11T03:52:23;1999.90;;;999.90;;
25437;SDS011;13364;49.084;9.978;2022-07-11T03:54:50;1999.90;;;999.90;;
25437;SDS011;13364;49.084;9.978;2022-07-11T03:57:17;1999.90;;;999.90;;
25437;SDS011;13364;49.084;9.978;2022-07-11T03:59:44;1999.90;;;999.90;;
25437;SDS011;13364;49.084;9.978;2022-07-11T04:02:11;1999.90;;;999.90;;
25437;SDS011;13364;49.084;9.978;2022-07-11T04:04:38;1999.90;;;999.90;;
25437;SDS011;13364;49.084;9.978;2022-07-11T04:07:06;1999.90;;;999.90;;
25437;SDS011;13364;49.084;9.978;2022-07-11T04:09:33;1999.90;;;999.90;;
25437;SDS011;13364;49.084;9.978;2022-07-11T04:12:00;1999.90;;;999.90;;
25437;SDS011;13364;49.084;9.978;2022-07-11T04:14:27;1999.90;;;999.90;;
25437;SDS011;13364;49.084;9.978;2022-07-11T04:16:54;1999.90;;;999.90;;
25437;SDS011;13364;49.084;9.978;2022-07-11T04:19:22;1999.90;;;999.90;;
25437;SDS011;13364;49.084;9.978;2022-07-11T04:21:50;1999.90;;;999.90;;
25437;SDS011;13364;49.084;9.978;2022-07-11T04:24:17;1999.90;;;999.90;;
25437;SDS011;13364;49.084;9.978;2022-07-11T04:26:44;1999.90;;;999.90;;
25437;SDS011;13364;49.084;9.978;2022-07-11T04:29:11;1999.90;;;999.90;;
25437;SDS011;13364;49.084;9.978;2022-07-11T04:31:38;1999.90;;;999.90;;
25437;SDS011;13364;49.084;9.978;2022-07-11T04:34:05;218.40;;;69.38;;
25437;SDS011;13364;49.084;9.978;2022-07-11T04:36:32;4.20;;;3.42;;
25437;SDS011;13364;49.084;9.978;2022-07-11T04:38:59;2.97;;;2.78;;
25437;SDS011;13364;49.084;9.978;2022-07-11T04:41:26;3.42;;;3.13;;
25437;SDS011;13364;49.084;9.978;2022-07-11T04:43:53;4.15;;;2.65;;
25437;SDS011;13364;49.084;9.978;2022-07-11T04:46:20;5.90;;;2.72;;
25437;SDS011;13364;49.084;9.978;2022-07-11T04:52:48;19.52;;;12.77;;
25437;SDS011;13364;49.084;9.978;2022-07-11T04:55:15;27.90;;;7.00;;
25437;SDS011;13364;49.084;9.978;2022-07-11T04:57:44;6.43;;;5.87;;
25437;SDS011;13364;49.084;9.978;2022-07-11T05:00:11;9.95;;;8.63;;
25437;SDS011;13364;49.084;9.978;2022-07-11T05:02:38;8.63;;;5.50;;
25437;SDS011;13364;49.084;9.978;2022-07-11T05:05:06;4.80;;;4.40;;
25437;SDS011;13364;49.084;9.978;2022-07-11T05:07:33;8.35;;;5.10;;
25437;SDS011;13364;49.084;9.978;2022-07-11T05:10:01;3.90;;;3.60;;
25437;SDS011;13364;49.084;9.978;2022-07-11T05:12:28;3.42;;;3.20;;
25437;SDS011;13364;49.084;9.978;2022-07-11T05:14:55;1999.90;;;999.90;;
25437;SDS011;13364;49.084;9.978;2022-07-11T05:17:28;2.58;;;2.20;;
25437;SDS011;13364;49.084;9.978;2022-07-11T05:19:55;2.55;;;2.33;;
25437;SDS011;13364;49.084;9.978;2022-07-11T05:22:22;2.90;;;2.70;;
25437;SDS011;13364;49.084;9.978;2022-07-11T05:24:49;2.20;;;2.00;;
25437;SDS011;13364;49.084;9.978;2022-07-11T05:27:16;5.97;;;2.70;;
25437;SDS011;13364;49.084;9.978;2022-07-11T05:29:43;2.42;;;2.15;;
25437;SDS011;13364;49.084;9.978;2022-07-11T05:32:10;3.08;;;2.78;;
25437;SDS011;13364;49.084;9.978;2022-07-11T05:34:37;3.03;;;2.45;;
25437;SDS011;13364;49.084;9.978;2022-07-11T05:37:05;3.10;;;2.70;;
25437;SDS011;13364;49.084;9.978;2022-07-11T05:39:32;3.38;;;2.90;;
25437;SDS011;13364;49.084;9.978;2022-07-11T05:41:59;3.63;;;2.42;;
25437;SDS011;13364;49.084;9.978;2022-07-11T05:44:26;5.65;;;2.70;;
25437;SDS011;13364;49.084;9.978;2022-07-11T05:46:57;3.15;;;2.80;;
25437;SDS011;13364;49.084;9.978;2022-07-11T05:49:30;3.00;;;2.45;;
25437;SDS011;13364;49.084;9.978;2022-07-11T05:51:58;2.72;;;2.47;;
25437;SDS011;13364;49.084;9.978;2022-07-11T05:54:25;3.72;;;2.55;;
25437;SDS011;13364;49.084;9.978;2022-07-11T05:56:52;3.67;;;2.33;;
25437;SDS011;13364;49.084;9.978;2022-07-11T05:59:21;3.75;;;2.45;;
25437;SDS011;13364;49.084;9.978;2022-07-11T06:01:48;2.95;;;2.63;;
25437;SDS011;13364;49.084;9.978;2022-07-11T06:04:15;5.35;;;3.00;;
25437;SDS011;13364;49.084;9.978;2022-07-11T06:06:42;4.82;;;2.80;;
25437;SDS011;13364;49.084;9.978;2022-07-11T06:09:09;3.08;;;2.30;;
25437;SDS011;13364;49.084;9.978;2022-07-11T06:11:36;3.10;;;2.40;;
25437;SDS011;13364;49.084;9.978;2022-07-11T06:14:04;4.07;;;2.28;;
25437;SDS011;13364;49.084;9.978;2022-07-11T06:16:32;4.30;;;2.67;;
25437;SDS011;13364;49.084;9.978;2022-07-11T06:18:59;2.58;;;2.38;;
25437;SDS011;13364;49.084;9.978;2022-07-11T06:21:27;2.55;;;2.35;;
25437;SDS011;13364;49.084;9.978;2022-07-11T06:23:54;2.10;;;1.90;;
25437;SDS011;13364;49.084;9.978;2022-07-11T06:26:21;2.38;;;1.98;;
25437;SDS011;13364;49.084;9.978;2022-07-11T06:28:49;2.58;;;2.22;;
25437;SDS011;13364;49.084;9.978;2022-07-11T06:31:16;3.97;;;2.60;;
25437;SDS011;13364;49.084;9.978;2022-07-11T06:33:44;4.80;;;2.70;;
25437;SDS011;13364;49.084;9.978;2022-07-11T06:36:12;6.63;;;2.70;;
25437;SDS011;13364;49.084;9.978;2022-07-11T06:38:39;2.78;;;2.47;;
25437;SDS011;13364;49.084;9.978;2022-07-11T06:41:07;3.53;;;2.20;;
25437;SDS011;13364;49.084;9.978;2022-07-11T06:43:35;3.13;;;2.30;;
25437;SDS011;13364;49.084;9.978;2022-07-11T06:46:02;3.03;;;2.35;;
25437;SDS011;13364;49.084;9.978;2022-07-11T06:48:29;2.22;;;2.00;;
25437;SDS011;13364;49.084;9.978;2022-07-11T06:50:56;2.60;;;2.40;;
25437;SDS011;13364;49.084;9.978;2022-07-11T06:53:31;2.97;;;2.08;;
25437;SDS011;13364;49.084;9.978;2022-07-11T06:55:58;2.40;;;2.15;;
25437;SDS011;13364;49.084;9.978;2022-07-11T06:58:25;2.45;;;1.98;;
25437;SDS011;13364;49.084;9.978;2022-07-11T07:00:59;2.17;;;1.90;;
25437;SDS011;13364;49.084;9.978;2022-07-11T07:03:27;2.47;;;2.28;;
25437;SDS011;13364;49.084;9.978;2022-07-11T07:05:55;2.10;;;1.90;;
25437;SDS011;13364;49.084;9.978;2022-07-11T07:08:24;1.67;;;1.58;;
25437;SDS011;13364;49.084;9.978;2022-07-11T07:10:52;1.83;;;1.67;;
25437;SDS011;13364;49.084;9.978;2022-07-11T07:13:20;5.18;;;1.95;;
25437;SDS011;13364;49.084;9.978;2022-07-11T07:15:50;2.03;;;1.73;;
25437;SDS011;13364;49.084;9.978;2022-07-11T07:18:19;3.03;;;2.40;;
25437;SDS011;13364;49.084;9.978;2022-07-11T07:20:46;1.88;;;1.77;;
25437;SDS011;13364;49.084;9.978;2022-07-11T07:23:16;2.20;;;2.00;;
25437;SDS011;13364;49.084;9.978;2022-07-11T07:25:44;3.25;;;1.60;;
25437;SDS011;13364;49.084;9.978;2022-07-11T07:28:11;2.50;;;1.63;;
25437;SDS011;13364;49.084;9.978;2022-07-11T07:30:39;3.67;;;1.90;;
25437;SDS011;13364;49.084;9.978;2022-07-11T07:33:06;2.97;;;2.00;;
25437;SDS011;13364;49.084;9.978;2022-07-11T07:35:33;2.72;;;1.70;;
25437;SDS011;13364;49.084;9.978;2022-07-11T07:38:00;3.85;;;3.03;;
25437;SDS011;13364;49.084;9.978;2022-07-11T07:40:28;3.88;;;2.85;;
25437;SDS011;13364;49.084;9.978;2022-07-11T07:42:55;5.10;;;3.53;;
25437;SDS011;13364;49.084;9.978;2022-07-11T07:45:22;4.35;;;3.55;;
25437;SDS011;13364;49.084;9.978;2022-07-11T07:47:50;6.25;;;4.07;;
25437;SDS011;13364;49.084;9.978;2022-07-11T07:50:17;7.10;;;4.72;;
25437;SDS011;13364;49.084;9.978;2022-07-11T07:52:44;4.55;;;4.13;;
25437;SDS011;13364;49.084;9.978;2022-07-11T07:55:12;5.45;;;3.08;;
25437;SDS011;13364;49.084;9.978;2022-07-11T07:57:39;4.85;;;2.92;;
25437;SDS011;13364;49.084;9.978;2022-07-11T08:00:06;8.88;;;4.70;;
25437;SDS011;13364;49.084;9.978;2022-07-11T08:02:52;7.45;;;4.20;;
25437;SDS011;13364;49.084;9.978;2022-07-11T08:05:19;7.72;;;4.95;;
25437;SDS011;13364;49.084;9.978;2022-07-11T08:07:47;6.63;;;4.20;;
25437;SDS011;13364;49.084;9.978;2022-07-11T08:10:14;6.72;;;4.30;;
25437;SDS011;13364;49.084;9.978;2022-07-11T08:12:41;3.88;;;3.47;;
25437;SDS011;13364;49.084;9.978;2022-07-11T08:15:09;5.90;;;3.78;;
25437;SDS011;13364;49.084;9.978;2022-07-11T08:17:37;6.25;;;4.10;;
25437;SDS011;13364;49.084;9.978;2022-07-11T08:20:04;5.10;;;3.50;;
25437;SDS011;13364;49.084;9.978;2022-07-11T08:22:31;5.57;;;4.97;;
25437;SDS011;13364;49.084;9.978;2022-07-11T08:24:59;9.52;;;5.53;;
25437;SDS011;13364;49.084;9.978;2022-07-11T08:27:26;6.03;;;4.35;;
25437;SDS011;13364;49.084;9.978;2022-07-11T08:30:05;6.80;;;4.35;;
25437;SDS011;13364;49.084;9.978;2022-07-11T08:32:37;6.63;;;4.15;;
25437;SDS011;13364;49.084;9.978;2022-07-11T08:35:07;4.35;;;3.75;;
25437;SDS011;13364;49.084;9.978;2022-07-11T08:37:34;5.38;;;4.38;;
25437;SDS011;13364;49.084;9.978;2022-07-11T08:40:03;4.70;;;3.55;;
25437;SDS011;13364;49.084;9.978;2022-07-11T08:42:30;4.32;;;3.92;;
25437;SDS011;13364;49.084;9.978;2022-07-11T08:45:00;6.28;;;3.58;;
25437;SDS011;13364;49.084;9.978;2022-07-11T08:47:28;4.82;;;3.30;;
25437;SDS011;13364;49.084;9.978;2022-07-11T08:49:57;4.40;;;3.30;;
25437;SDS011;13364;49.084;9.978;2022-07-11T08:52:25;5.30;;;3.35;;
25437;SDS011;13364;49.084;9.978;2022-07-11T08:54:55;4.03;;;3.63;;
25437;SDS011;13364;49.084;9.978;2022-07-11T08:57:22;5.05;;;3.55;;
25437;SDS011;13364;49.084;9.978;2022-07-11T08:59:51;6.60;;;3.40;;
25437;SDS011;13364;49.084;9.978;2022-07-11T09:02:24;5.55;;;4.45;;
25437;SDS011;13364;49.084;9.978;2022-07-11T09:04:54;6.72;;;4.28;;
25437;SDS011;13364;49.084;9.978;2022-07-11T09:07:21;6.57;;;4.30;;
25437;SDS011;13364;49.084;9.978;2022-07-11T09:09:48;4.82;;;3.53;;
25437;SDS011;13364;49.084;9.978;2022-07-11T09:12:15;4.30;;;3.90;;
25437;SDS011;13364;49.084;9.978;2022-07-11T09:14:46;6.65;;;4.13;;
25437;SDS011;13364;49.084;9.978;2022-07-11T09:17:14;4.70;;;4.10;;
25437;SDS011;13364;49.084;9.978;2022-07-11T09:19:50;4.82;;;3.58;;
25437;SDS011;13364;49.084;9.978;2022-07-11T09:22:18;7.20;;;4.57;;
25437;SDS011;13364;49.084;9.978;2022-07-11T09:25:05;6.63;;;4.88;;
25437;SDS011;13364;49.084;9.978;2022-07-11T09:28:03;6.43;;;4.75;;
25437;SDS011;13364;49.084;9.978;2022-07-11T09:30:35;7.25;;;4.00;;
25437;SDS011;13364;49.084;9.978;2022-07-11T09:33:10;7.93;;;4.07;;
25437;SDS011;13364;49.084;9.978;2022-07-11T09:35:43;4.55;;;3.70;;
25437;SDS011;13364;49.084;9.978;2022-07-11T09:38:12;4.15;;;3.60;;
25437;SDS011;13364;49.084;9.978;2022-07-11T09:40:44;6.70;;;4.43;;
25437;SDS011;13364;49.084;9.978;2022-07-11T09:43:12;3.63;;;3.25;;
25437;SDS011;13364;49.084;9.978;2022-07-11T09:45:40;5.30;;;3.60;;
25437;SDS011;13364;49.084;9.978;2022-07-11T09:50:36;7.25;;;3.40;;
25437;SDS011;13364;49.084;9.978;2022-07-11T09:53:06;7.00;;;3.83;;
25437;SDS011;13364;49.084;9.978;2022-07-11T09:55:41;4.00;;;3.15;;
25437;SDS011;13364;49.084;9.978;2022-07-11T09:58:17;3.47;;;3.03;;
25437;SDS011;13364;49.084;9.978;2022-07-11T10:00:45;7.07;;;4.15;;
25437;SDS011;13364;49.084;9.978;2022-07-11T10:03:12;5.90;;;3.70;;
25437;SDS011;13364;49.084;9.978;2022-07-11T10:05:59;6.10;;;3.83;;
25437;SDS011;13364;49.084;9.978;2022-07-11T10:08:27;3.80;;;2.90;;
25437;SDS011;13364;49.084;9.978;2022-07-11T10:10:54;4.55;;;3.55;;
25437;SDS011;13364;49.084;9.978;2022-07-11T10:13:22;6.75;;;2.90;;
25437;SDS011;13364;49.084;9.978;2022-07-11T10:15:49;3.38;;;2.90;;
25437;SDS011;13364;49.084;9.978;2022-07-11T10:21:18;6.75;;;3.47;;
25437;SDS011;13364;49.084;9.978;2022-07-11T10:29:50;3.60;;;3.30;;
25437;SDS011;13364;49.084;9.978;2022-07-11T10:32:19;9.95;;;3.33;;
25437;SDS011;13364;49.084;9.978;2022-07-11T10:35:04;3.13;;;2.83;;
25437;SDS011;13364;49.084;9.978;2022-07-11T10:37:44;5.32;;;3.13;;
25437;SDS011;13364;49.084;9.978;2022-07-11T10:41:00;3.28;;;2.95;;
25437;SDS011;13364;49.084;9.978;2022-07-11T10:45:49;4.95;;;2.92;;
25437;SDS011;13364;49.084;9.978;2022-07-11T10:48:20;4.63;;;2.92;;
25437;SDS011;13364;49.084;9.978;2022-07-11T10:51:04;2.92;;;2.67;;
25437;SDS011;13364;49.084;9.978;2022-07-11T10:53:49;5.35;;;3.90;;
25437;SDS011;13364;49.084;9.978;2022-07-11T10:57:19;3.40;;;3.10;;
25437;SDS011;13364;49.084;9.978;2022-07-11T10:59:29;4.15;;;3.55;;
25437;SDS011;13364;49.084;9.978;2022-07-11T11:07:35;5.75;;;3.63;;
25437;SDS011;13364;49.084;9.978;2022-07-11T11:10:44;3.80;;;2.80;;
25437;SDS011;13364;49.084;9.978;2022-07-11T11:15:34;5.32;;;2.70;;
25437;SDS011;13364;49.084;9.978;2022-07-11T11:23:29;2.70;;;2.47;;
25437;SDS011;13364;49.084;9.978;2022-07-11T11:26:16;3.42;;;2.45;;
25437;SDS011;13364;49.084;9.978;2022-07-11T11:28:58;2.88;;;2.50;;
25437;SDS011;13364;49.084;9.978;2022-07-11T11:31:27;3.28;;;2.97;;
25437;SDS011;13364;49.084;9.978;2022-07-11T11:36:52;3.00;;;2.70;;
25437;SDS011;13364;49.084;9.978;2022-07-11T11:39:24;5.03;;;3.30;;
25437;SDS011;13364;49.084;9.978;2022-07-11T11:41:53;2.67;;;2.45;;
25437;SDS011;13364;49.084;9.978;2022-07-11T11:44:26;3.85;;;2.60;;
25437;SDS011;13364;49.084;9.978;2022-07-11T11:46:54;2.75;;;2.55;;
25437;SDS011;13364;49.084;9.978;2022-07-11T11:49:21;3.42;;;2.65;;
25437;SDS011;13364;49.084;9.978;2022-07-11T11:59:12;3.08;;;2.78;;
25437;SDS011;13364;49.084;9.978;2022-07-11T12:01:47;3.75;;;3.33;;
25437;SDS011;13364;49.084;9.978;2022-07-11T12:04:15;3.00;;;2.80;;
25437;SDS011;13364;49.084;9.978;2022-07-11T12:06:44;4.80;;;2.58;;
25437;SDS011;13364;49.084;9.978;2022-07-11T12:09:13;2.72;;;2.53;;
25437;SDS011;13364;49.084;9.978;2022-07-11T12:11:43;2.63;;;2.20;;
25437;SDS011;13364;49.084;9.978;2022-07-11T12:14:37;4.53;;;2.90;;
25437;SDS011;13364;49.084;9.978;2022-07-11T12:17:04;2.35;;;2.15;;
25437;SDS011;13364;49.084;9.978;2022-07-11T12:19:34;4.43;;;3.08;;
25437;SDS011;13364;49.084;9.978;2022-07-11T12:22:05;4.15;;;2.70;;
25437;SDS011;13364;49.084;9.978;2022-07-11T12:24:33;2.65;;;2.45;;
25437;SDS011;13364;49.084;9.978;2022-07-11T12:27:00;3.22;;;2.80;;
25437;SDS011;13364;49.084;9.978;2022-07-11T12:32:24;4.63;;;3.20;;
25437;SDS011;13364;49.084;9.978;2022-07-11T12:34:51;3.60;;;3.22;;
25437;SDS011;13364;49.084;9.978;2022-07-11T12:37:24;3.33;;;2.88;;
25437;SDS011;13364;49.084;9.978;2022-07-11T12:40:04;6.75;;;2.80;;
25437;SDS011;13364;49.084;9.978;2022-07-11T12:42:42;4.57;;;3.15;;
25437;SDS011;13364;49.084;9.978;2022-07-11T12:48:40;3.40;;;3.10;;
25437;SDS011;13364;49.084;9.978;2022-07-11T12:51:08;3.53;;;3.20;;
25437;SDS011;13364;49.084;9.978;2022-07-11T12:53:35;3.67;;;3.38;;
25437;SDS011;13364;49.084;9.978;2022-07-11T12:56:02;3.88;;;3.42;;
25437;SDS011;13364;49.084;9.978;2022-07-11T12:58:36;4.03;;;3.20;;
25437;SDS011;13364;49.084;9.978;2022-07-11T13:01:05;4.50;;;3.38;;
25437;SDS011;13364;49.084;9.978;2022-07-11T13:03:33;3.35;;;3.05;;
25437;SDS011;13364;49.084;9.978;2022-07-11T13:06:02;5.70;;;3.40;;
25437;SDS011;13364;49.084;9.978;2022-07-11T13:08:34;4.20;;;2.92;;
25437;SDS011;13364;49.084;9.978;2022-07-11T13:11:16;3.83;;;3.10;;
25437;SDS011;13364;49.084;9.978;2022-07-11T13:13:48;3.15;;;2.85;;
25437;SDS011;13364;49.084;9.978;2022-07-11T13:16:16;3.00;;;2.80;;
25437;SDS011;13364;49.084;9.978;2022-07-11T13:18:44;3.20;;;2.90;;
25437;SDS011;13364;49.084;9.978;2022-07-11T13:21:13;3.13;;;2.83;;
25437;SDS011;13364;49.084;9.978;2022-07-11T13:23:40;4.97;;;3.20;;
25437;SDS011;13364;49.084;9.978;2022-07-11T13:26:08;5.45;;;3.15;;
25437;SDS011;13364;49.084;9.978;2022-07-11T13:28:37;3.65;;;3.10;;
25437;SDS011;13364;49.084;9.978;2022-07-11T13:31:05;5.25;;;2.95;;
25437;SDS011;13364;49.084;9.978;2022-07-11T13:33:41;3.22;;;2.92;;
25437;SDS011;13364;49.084;9.978;2022-07-11T13:36:09;6.00;;;3.10;;
25437;SDS011;13364;49.084;9.978;2022-07-11T13:38:37;2.67;;;2.47;;
25437;SDS011;13364;49.084;9.978;2022-07-11T13:41:04;3.95;;;2.80;;
25437;SDS011;13364;49.084;9.978;2022-07-11T13:43:39;2.70;;;2.50;;
25437;SDS011;13364;49.084;9.978;2022-07-11T13:48:34;3.00;;;2.70;;
25437;SDS011;13364;49.084;9.978;2022-07-11T13:51:02;3.13;;;2.75;;
25437;SDS011;13364;49.084;9.978;2022-07-11T13:53:29;3.50;;;2.78;;
25437;SDS011;13364;49.084;9.978;2022-07-11T13:55:57;3.13;;;2.55;;
25437;SDS011;13364;49.084;9.978;2022-07-11T13:58:24;4.55;;;2.75;;
25437;SDS011;13364;49.084;9.978;2022-07-11T14:00:55;3.60;;;2.20;;
25437;SDS011;13364;49.084;9.978;2022-07-11T14:03:23;3.08;;;2.75;;
25437;SDS011;13364;49.084;9.978;2022-07-11T14:05:50;2.85;;;2.60;;
25437;SDS011;13364;49.084;9.978;2022-07-11T14:11:11;5.03;;;2.90;;
25437;SDS011;13364;49.084;9.978;2022-07-11T14:13:40;3.00;;;2.80;;
25437;SDS011;13364;49.084;9.978;2022-07-11T14:16:15;5.75;;;2.95;;
25437;SDS011;13364;49.084;9.978;2022-07-11T14:18:53;3.10;;;2.80;;
25437;SDS011;13364;49.084;9.978;2022-07-11T14:21:20;5.72;;;3.25;;
25437;SDS011;13364;49.084;9.978;2022-07-11T14:23:47;3.60;;;3.03;;
25437;SDS011;13364;49.084;9.978;2022-07-11T14:26:14;5.15;;;2.70;;
25437;SDS011;13364;49.084;9.978;2022-07-11T14:32:46;3.38;;;2.80;;
25437;SDS011;13364;49.084;9.978;2022-07-11T14:35:14;3.55;;;3.22;;
25437;SDS011;13364;49.084;9.978;2022-07-11T14:37:41;4.03;;;2.95;;
25437;SDS011;13364;49.084;9.978;2022-07-11T14:40:08;2.97;;;2.78;;
25437;SDS011;13364;49.084;9.978;2022-07-11T14:42:35;2.83;;;2.63;;
25437;SDS011;13364;49.084;9.978;2022-07-11T14:45:07;3.35;;;2.42;;
25437;SDS011;13364;49.084;9.978;2022-07-11T14:47:36;3.08;;;2.78;;
25437;SDS011;13364;49.084;9.978;2022-07-11T14:50:03;3.00;;;2.78;;
25437;SDS011;13364;49.084;9.978;2022-07-11T14:52:31;4.22;;;3.10;;
25437;SDS011;13364;49.084;9.978;2022-07-11T14:54:58;3.40;;;3.10;;
25437;SDS011;13364;49.084;9.978;2022-07-11T14:57:26;108.93;;;15.75;;
25437;SDS011;13364;49.084;9.978;2022-07-11T14:59:53;2.83;;;1.98;;
25437;SDS011;13364;49.084;9.978;2022-07-11T15:02:20;25.45;;;24.25;;
25437;SDS011;13364;49.084;9.978;2022-07-11T15:07:41;229.50;;;27.33;;
25437;SDS011;13364;49.084;9.978;2022-07-11T15:10:26;5.55;;;3.25;;
25437;SDS011;13364;49.084;9.978;2022-07-11T15:13:18;4.18;;;2.85;;
25437;SDS011;13364;49.084;9.978;2022-07-11T15:15:46;3.72;;;2.75;;
25437;SDS011;13364;49.084;9.978;2022-07-11T15:18:14;5.30;;;3.10;;
25437;SDS011;13364;49.084;9.978;2022-07-11T15:20:41;4.35;;;2.97;;
25437;SDS011;13364;49.084;9.978;2022-07-11T15:23:08;3.08;;;2.42;;
25437;SDS011;13364;49.084;9.978;2022-07-11T15:25:35;5.45;;;2.90;;
25437;SDS011;13364;49.084;9.978;2022-07-11T15:28:02;3.53;;;2.92;;
25437;SDS011;13364;49.084;9.978;2022-07-11T15:30:30;4.25;;;2.38;;
25437;SDS011;13364;49.084;9.978;2022-07-11T15:32:57;3.50;;;2.50;;
25437;SDS011;13364;49.084;9.978;2022-07-11T15:35:26;3.45;;;3.15;;
25437;SDS011;13364;49.084;9.978;2022-07-11T15:37:53;3.38;;;3.08;;
25437;SDS011;13364;49.084;9.978;2022-07-11T15:40:20;3.28;;;2.97;;
25437;SDS011;13364;49.084;9.978;2022-07-11T15:42:48;3.10;;;2.80;;
25437;SDS011;13364;49.084;9.978;2022-07-11T15:48:35;2.95;;;2.53;;
25437;SDS011;13364;49.084;9.978;2022-07-11T15:51:02;2.70;;;2.42;;
25437;SDS011;13364;49.084;9.978;2022-07-11T15:53:30;2.97;;;2.50;;